createdAt,value
2022-10-07T00:01:55.228Z,99.90
2022-10-07T00:04:25.289Z,99.90
2022-10-07T00:06:55.183Z,99.90
2022-10-07T00:09:25.218Z,99.90
2022-10-07T00:11:55.329Z,99.90
2022-10-07T00:14:25.181Z,99.90
2022-10-07T00:16:55.288Z,99.90
2022-10-07T00:19:25.349Z,99.90
2022-10-07T00:21:55.352Z,99.90
2022-10-07T00:24:25.246Z,99.90
2022-10-07T00:26:55.096Z,99.90
2022-10-07T00:29:25.008Z,99.90
2022-10-07T00:31:57.313Z,99.90
2022-10-07T00:34:27.481Z,99.90
2022-10-07T00:36:57.349Z,99.90
2022-10-07T00:39:27.220Z,99.90
2022-10-07T00:41:57.764Z,99.90
2022-10-07T00:44:44.485Z,99.90
2022-10-07T00:47:23.461Z,99.90
2022-10-07T00:50:08.975Z,99.90
2022-10-07T00:52:44.821Z,99.90
2022-10-07T00:55:19.130Z,99.90
2022-10-07T00:57:51.338Z,99.90
2022-10-07T01:00:25.200Z,99.90
2022-10-07T01:02:55.816Z,99.90
2022-10-07T01:05:26.021Z,99.90
2022-10-07T01:07:59.045Z,99.90
2022-10-07T01:10:35.406Z,99.90
2022-10-07T01:23:01.407Z,99.90
2022-10-07T01:34:38.244Z,99.90
2022-10-07T01:37:13.494Z,99.90
2022-10-07T01:39:51.289Z,99.90
2022-10-07T01:42:23.010Z,99.90
2022-10-07T01:44:57.428Z,99.90
2022-10-07T01:47:29.055Z,99.90
2022-10-07T01:50:00.169Z,99.90
2022-10-07T01:52:53.731Z,99.90
2022-10-07T01:55:43.083Z,99.90
2022-10-07T02:44:35.996Z,99.90
2022-10-07T02:47:18.228Z,99.90
2022-10-07T02:49:54.889Z,99.90
2022-10-07T02:52:26.542Z,99.90
2022-10-07T02:55:03.624Z,99.90
2022-10-07T02:57:38.174Z,99.90
2022-10-07T03:00:11.321Z,99.90
2022-10-07T03:02:51.623Z,99.90
2022-10-07T03:05:22.239Z,99.90
2022-10-07T03:07:57.106Z,99.90
2022-10-07T03:10:30.799Z,99.90
2022-10-07T03:13:00.961Z,99.90
2022-10-07T03:15:31.023Z,99.90
2022-10-07T03:18:00.411Z,99.90
2022-10-07T03:20:31.833Z,99.90
2022-10-07T03:23:02.435Z,99.90
2022-10-07T03:25:32.396Z,99.90
2022-10-07T03:28:01.553Z,99.90
2022-10-07T03:30:31.462Z,99.90
2022-10-07T03:33:01.765Z,99.90
2022-10-07T03:35:32.155Z,99.90
2022-10-07T03:38:02.397Z,99.90
2022-10-07T03:40:32.381Z,99.90
2022-10-07T03:43:01.642Z,99.90
2022-10-07T03:45:33.315Z,99.90
2022-10-07T03:48:03.307Z,99.90
2022-10-07T03:50:32.714Z,99.50
2022-10-07T03:53:02.597Z,99.80
2022-10-07T03:55:32.854Z,99.90
2022-10-07T03:58:03.731Z,99.90
2022-10-07T04:00:34.606Z,99.90
2022-10-07T04:03:04.524Z,99.60
2022-10-07T04:05:33.919Z,99.90
2022-10-07T04:08:04.026Z,99.90
2022-10-07T04:10:34.458Z,99.20
2022-10-07T04:13:04.421Z,99.50
2022-10-07T04:15:34.473Z,98.80
2022-10-07T04:18:04.302Z,97.50
2022-10-07T04:20:33.489Z,96.90
2022-10-07T04:23:03.396Z,97.00
2022-10-07T04:25:35.717Z,97.40
2022-10-07T04:28:09.106Z,97.90
2022-10-07T04:30:45.384Z,98.10
2022-10-07T04:33:15.426Z,98.50
2022-10-07T04:35:45.800Z,96.80
2022-10-07T04:38:18.051Z,97.10
2022-10-07T04:40:51.673Z,96.30
2022-10-07T04:43:25.545Z,96.70
2022-10-07T04:46:02.344Z,97.50
2022-10-07T04:48:32.598Z,96.60
2022-10-07T04:51:11.173Z,96.10
2022-10-07T04:53:41.954Z,94.50
2022-10-07T04:56:12.710Z,95.10
2022-10-07T04:58:42.530Z,95.20
2022-10-07T05:01:12.220Z,95.30
2022-10-07T05:03:43.501Z,95.60
2022-10-07T05:06:13.893Z,94.10
2022-10-07T05:08:45.958Z,94.80
2022-10-07T05:11:15.994Z,95.00
2022-10-07T05:13:45.806Z,93.80
2022-10-07T05:16:14.994Z,94.60
2022-10-07T05:18:44.866Z,94.40
2022-10-07T05:21:14.034Z,95.00
2022-10-07T05:23:43.999Z,95.20
2022-10-07T05:26:15.543Z,95.60
2022-10-07T05:28:47.220Z,95.40
2022-10-07T05:31:18.155Z,95.10
2022-10-07T05:33:48.863Z,94.60
2022-10-07T05:36:18.958Z,93.40
2022-10-07T05:38:49.209Z,94.60
2022-10-07T05:41:19.034Z,94.80
2022-10-07T05:43:49.833Z,94.90
2022-10-07T05:46:22.230Z,94.80
2022-10-07T05:48:54.399Z,94.40
2022-10-07T05:51:26.211Z,93.90
2022-10-07T05:53:59.586Z,93.20
2022-10-07T05:56:29.445Z,93.60
2022-10-07T05:58:59.192Z,95.00
2022-10-07T06:01:30.141Z,94.30
2022-10-07T06:04:00.814Z,93.30
2022-10-07T06:06:31.970Z,94.50
2022-10-07T06:09:21.235Z,95.10
2022-10-07T06:12:10.535Z,94.70
2022-10-07T06:14:40.571Z,95.60
2022-10-07T06:17:10.639Z,95.40
2022-10-07T06:19:40.928Z,95.10
2022-10-07T06:22:10.909Z,95.50
2022-10-07T06:24:40.711Z,95.50
2022-10-07T06:27:10.165Z,95.70
2022-10-07T06:29:40.101Z,96.00
2022-10-07T06:32:10.121Z,96.00
2022-10-07T06:34:40.429Z,96.20
2022-10-07T06:37:10.422Z,95.60
2022-10-07T06:39:40.408Z,96.40
2022-10-07T06:42:11.047Z,96.70
2022-10-07T06:44:41.119Z,96.70
2022-10-07T06:47:12.042Z,97.00
2022-10-07T06:49:42.281Z,97.30
2022-10-07T06:52:12.707Z,97.30
2022-10-07T06:54:42.817Z,96.80
2022-10-07T06:57:40.310Z,96.50
2022-10-07T07:00:02.886Z,96.30
2022-10-07T07:02:32.885Z,96.50
2022-10-07T07:05:06.158Z,96.10
2022-10-07T07:07:36.030Z,97.00
2022-10-07T07:10:05.415Z,97.10
2022-10-07T07:12:35.410Z,97.40
2022-10-07T07:15:06.614Z,98.00
2022-10-07T07:17:37.378Z,97.00
2022-10-07T07:20:07.426Z,97.90
2022-10-07T07:22:37.389Z,98.20
2022-10-07T07:25:07.607Z,97.90
2022-10-07T07:27:38.911Z,97.60
2022-10-07T07:30:09.322Z,97.20
2022-10-07T07:32:39.421Z,97.50
2022-10-07T07:35:10.789Z,96.90
2022-10-07T07:37:40.768Z,97.10
2022-10-07T07:40:11.208Z,96.90
2022-10-07T07:42:41.190Z,96.40
2022-10-07T07:45:11.540Z,95.30
2022-10-07T07:47:41.506Z,95.30
2022-10-07T07:50:11.787Z,95.20
2022-10-07T07:52:41.735Z,95.30
2022-10-07T07:55:11.825Z,95.50
2022-10-07T07:57:42.016Z,95.00
2022-10-07T08:00:14.857Z,94.60
2022-10-07T08:02:45.702Z,95.00
2022-10-07T08:05:23.517Z,94.30
2022-10-07T08:07:54.054Z,94.40
2022-10-07T08:10:24.094Z,94.70
2022-10-07T08:12:53.866Z,94.60
2022-10-07T08:15:23.864Z,95.30
2022-10-07T08:17:54.576Z,95.80
2022-10-07T08:20:24.393Z,95.60
2022-10-07T08:22:56.893Z,95.80
2022-10-07T08:25:29.903Z,96.10
2022-10-07T08:28:00.367Z,95.30
2022-10-07T08:30:30.203Z,96.10
2022-10-07T08:33:01.904Z,96.20
2022-10-07T08:35:31.762Z,96.40
2022-10-07T08:38:01.111Z,95.80
2022-10-07T08:40:31.020Z,95.40
2022-10-07T08:43:01.099Z,96.00
2022-10-07T08:45:33.520Z,95.80
2022-10-07T08:48:08.011Z,96.60
2022-10-07T08:50:57.826Z,96.40
2022-10-07T08:53:36.019Z,96.90
2022-10-07T08:56:23.629Z,97.10
2022-10-07T08:59:23.753Z,97.40
2022-10-07T09:02:20.378Z,98.20
2022-10-07T09:05:08.981Z,98.20
2022-10-07T09:07:49.854Z,98.50
2022-10-07T09:10:33.613Z,99.30
2022-10-07T09:13:15.339Z,99.70
2022-10-07T09:16:06.417Z,99.90
2022-10-07T09:18:42.247Z,99.80
2022-10-07T09:21:20.746Z,99.70
2022-10-07T09:23:57.623Z,99.90
2022-10-07T09:26:29.531Z,99.30
2022-10-07T09:29:01.218Z,99.50
2022-10-07T09:31:34.660Z,99.30
2022-10-07T09:34:05.138Z,99.90
2022-10-07T09:36:35.495Z,99.60
2022-10-07T09:39:26.779Z,99.70
2022-10-07T09:41:57.198Z,99.80
2022-10-07T09:44:31.255Z,99.90
2022-10-07T09:47:02.570Z,99.90
2022-10-07T09:49:52.777Z,99.90
2022-10-07T09:52:26.584Z,99.90
2022-10-07T09:55:02.591Z,99.90
2022-10-07T09:57:37.144Z,99.90
2022-10-07T10:00:25.035Z,99.90
2022-10-07T10:03:05.556Z,99.90
2022-10-07T10:05:39.855Z,99.90
2022-10-07T10:08:31.631Z,99.90
2022-10-07T10:11:04.943Z,99.90
2022-10-07T10:13:38.180Z,99.90
2022-10-07T10:16:47.840Z,99.90
2022-10-07T10:19:29.521Z,99.90
2022-10-07T10:22:02.488Z,99.90
2022-10-07T10:24:53.185Z,99.90
2022-10-07T10:27:35.307Z,99.90
2022-10-07T10:30:10.541Z,99.90
2022-10-07T10:33:15.476Z,99.90
2022-10-07T10:36:13.483Z,99.90
2022-10-07T10:39:04.685Z,99.90
2022-10-07T10:41:57.394Z,99.90
2022-10-07T10:45:09.861Z,99.90
2022-10-07T10:48:09.911Z,99.90
2022-10-07T10:50:58.354Z,99.90
2022-10-07T10:53:55.866Z,99.90
2022-10-07T10:56:56.144Z,99.90
2022-10-07T11:00:01.326Z,99.90
2022-10-07T11:03:07.206Z,99.90
2022-10-07T11:05:39.887Z,99.90
2022-10-07T11:08:31.531Z,99.90
2022-10-07T11:11:10.767Z,99.90
2022-10-07T11:13:49.718Z,99.90
2022-10-07T11:16:29.734Z,99.90
2022-10-07T11:19:22.319Z,99.90
2022-10-07T11:21:55.847Z,99.90
2022-10-07T11:24:41.511Z,99.90
2022-10-07T11:27:31.164Z,99.90
2022-10-07T11:30:20.333Z,99.90
2022-10-07T11:33:01.518Z,99.90
2022-10-07T11:35:46.098Z,99.90
2022-10-07T11:38:22.864Z,99.90
2022-10-07T11:41:00.635Z,99.90
2022-10-07T11:43:38.307Z,99.90
2022-10-07T11:46:23.267Z,99.90
2022-10-07T11:49:05.063Z,99.90
2022-10-07T11:51:56.805Z,99.90
2022-10-07T11:54:30.954Z,99.90
2022-10-07T11:57:03.217Z,99.90
2022-10-07T11:59:51.080Z,99.90
2022-10-07T12:02:43.596Z,99.90
2022-10-07T12:05:50.164Z,99.90
2022-10-07T12:08:33.607Z,99.90
2022-10-07T12:11:42.806Z,99.90
2022-10-07T12:14:35.931Z,99.90
2022-10-07T12:17:23.943Z,99.90
2022-10-07T12:20:30.999Z,99.90
2022-10-07T12:23:31.627Z,99.90
2022-10-07T12:26:08.954Z,99.90
2022-10-07T12:28:52.140Z,99.90
2022-10-07T12:31:48.453Z,99.90
2022-10-07T12:34:37.389Z,99.90
2022-10-07T12:37:41.856Z,99.90
2022-10-07T12:40:27.451Z,99.90
2022-10-07T12:43:05.028Z,99.90
2022-10-07T12:45:39.075Z,99.90
2022-10-07T12:48:17.860Z,99.90
2022-10-07T12:50:51.174Z,99.90
2022-10-07T12:53:26.715Z,99.90
2022-10-07T12:55:58.745Z,99.90
2022-10-07T12:59:02.450Z,99.90
2022-10-07T13:01:56.125Z,99.90
2022-10-07T13:05:05.722Z,99.90
2022-10-07T13:08:14.812Z,99.90
2022-10-07T13:11:13.877Z,99.90
2022-10-07T13:14:11.404Z,99.90
2022-10-07T13:17:01.526Z,99.90
2022-10-07T13:19:44.285Z,99.90
2022-10-07T13:22:22.874Z,99.90
2022-10-07T13:24:57.921Z,99.90
2022-10-07T13:27:39.224Z,99.90
2022-10-07T13:30:10.886Z,99.90
2022-10-07T13:32:42.233Z,99.90
2022-10-07T13:35:34.005Z,99.90
2022-10-07T13:38:04.537Z,99.90
2022-10-07T13:40:37.585Z,99.90
2022-10-07T13:43:11.936Z,99.90
2022-10-07T13:45:47.010Z,99.90
2022-10-07T13:48:21.696Z,99.90
2022-10-07T13:50:54.005Z,99.90
2022-10-07T13:53:30.218Z,99.90
2022-10-07T13:56:24.174Z,99.90
2022-10-07T13:58:57.414Z,99.90
2022-10-07T14:01:31.645Z,99.90
2022-10-07T14:04:22.358Z,99.90
2022-10-07T14:07:00.672Z,99.90
2022-10-07T14:09:52.636Z,99.90
2022-10-07T14:12:33.500Z,99.90
2022-10-07T14:15:09.171Z,99.90
2022-10-07T14:17:50.215Z,99.90
2022-10-07T14:20:32.738Z,99.90
2022-10-07T14:23:06.637Z,99.90
2022-10-07T14:25:55.641Z,99.90
2022-10-07T14:28:35.896Z,99.90
2022-10-07T14:31:37.917Z,99.90
2022-10-07T14:34:39.066Z,99.90
2022-10-07T14:37:31.675Z,99.90
2022-10-07T14:40:02.720Z,99.90
2022-10-07T14:42:38.017Z,99.90
2022-10-07T14:45:11.692Z,99.90
2022-10-07T14:47:43.497Z,99.90
2022-10-07T14:50:15.914Z,99.90
2022-10-07T14:52:53.538Z,99.90
2022-10-07T14:55:29.490Z,99.90
2022-10-07T14:58:00.112Z,99.90
2022-10-07T15:00:37.317Z,99.90
2022-10-07T15:03:08.072Z,99.90
2022-10-07T15:05:39.743Z,99.90
2022-10-07T15:08:12.003Z,99.90
2022-10-07T15:10:45.519Z,99.90
2022-10-07T15:13:16.769Z,99.90
2022-10-07T15:15:49.223Z,99.90
2022-10-07T15:18:19.805Z,99.90
2022-10-07T15:20:58.881Z,99.90
2022-10-07T15:23:32.234Z,99.90
2022-10-07T15:26:04.503Z,99.90
2022-10-07T15:28:35.869Z,99.90
2022-10-07T15:31:08.759Z,99.90
2022-10-07T15:33:40.336Z,99.90
2022-10-07T15:36:10.848Z,99.90
2022-10-07T15:38:41.826Z,99.90
2022-10-07T15:41:18.333Z,99.90
2022-10-07T15:43:48.678Z,99.90
2022-10-07T15:46:19.413Z,99.90
2022-10-07T15:48:50.691Z,99.90
2022-10-07T15:51:21.258Z,99.90
2022-10-07T15:53:51.737Z,99.90
2022-10-07T15:56:22.232Z,99.90
2022-10-07T15:58:52.649Z,99.90
2022-10-07T16:01:23.479Z,99.90
2022-10-07T16:03:54.307Z,99.90
2022-10-07T16:06:27.614Z,99.90
2022-10-07T16:09:00.136Z,99.90
2022-10-07T16:11:31.641Z,99.90
2022-10-07T16:14:04.225Z,99.90
2022-10-07T16:16:35.244Z,99.90
2022-10-07T16:19:07.210Z,99.90
2022-10-07T16:21:40.850Z,99.90
2022-10-07T16:24:17.670Z,99.90
2022-10-07T16:26:49.354Z,99.90
2022-10-07T16:29:35.107Z,99.90
2022-10-07T16:32:06.086Z,99.90
2022-10-07T16:34:37.140Z,99.90
2022-10-07T16:37:08.327Z,99.90
2022-10-07T16:39:38.928Z,99.90
2022-10-07T16:42:09.931Z,99.90
2022-10-07T16:44:40.886Z,99.90
2022-10-07T16:47:11.370Z,99.90
2022-10-07T16:49:43.586Z,99.90
2022-10-07T16:52:14.132Z,99.90
2022-10-07T16:54:46.169Z,99.90
2022-10-07T16:57:16.792Z,99.90
2022-10-07T16:59:47.284Z,99.90
2022-10-07T17:02:18.262Z,99.90
2022-10-07T17:04:48.746Z,99.90
2022-10-07T17:07:19.095Z,99.90
2022-10-07T17:09:49.618Z,99.90
2022-10-07T17:12:20.082Z,99.90
2022-10-07T17:14:50.847Z,99.90
2022-10-07T17:17:21.096Z,99.90
2022-10-07T17:19:51.713Z,99.90
2022-10-07T17:22:22.815Z,99.90
2022-10-07T17:24:53.474Z,99.90
2022-10-07T17:27:23.999Z,99.90
2022-10-07T17:29:54.989Z,99.90
2022-10-07T17:32:26.135Z,99.90
2022-10-07T17:34:56.919Z,99.90
2022-10-07T17:37:28.247Z,99.90
2022-10-07T17:39:58.677Z,99.90
2022-10-07T17:42:29.220Z,99.90
2022-10-07T17:45:00.297Z,99.90
2022-10-07T17:47:30.766Z,99.90
2022-10-07T17:50:01.472Z,99.90
2022-10-07T17:52:34.145Z,99.90
2022-10-07T17:55:04.451Z,99.90
2022-10-07T17:57:34.980Z,99.90
2022-10-07T18:00:07.474Z,99.90
2022-10-07T18:02:38.316Z,99.90
2022-10-07T18:05:10.006Z,99.90
2022-10-07T18:07:41.042Z,99.90
2022-10-07T18:10:12.082Z,99.90
2022-10-07T18:13:00.808Z,99.90
2022-10-07T18:15:31.228Z,99.90
2022-10-07T18:18:01.728Z,99.90
2022-10-07T18:20:32.428Z,99.90
2022-10-07T18:23:02.857Z,99.90
2022-10-07T18:25:35.217Z,99.90
2022-10-07T18:28:05.742Z,99.90
2022-10-07T18:30:36.159Z,99.90
2022-10-07T18:33:06.587Z,99.90
2022-10-07T18:35:36.943Z,99.90
2022-10-07T18:38:07.335Z,99.90
2022-10-07T18:40:37.736Z,99.90
2022-10-07T18:43:08.201Z,99.90
2022-10-07T18:45:38.526Z,99.90
2022-10-07T18:48:08.892Z,99.90
2022-10-07T18:50:39.337Z,99.90
2022-10-07T18:53:09.994Z,99.90
2022-10-07T18:55:42.445Z,99.90
2022-10-07T18:58:12.934Z,99.90
2022-10-07T19:00:45.708Z,99.90
2022-10-07T19:03:16.429Z,99.90
2022-10-07T19:05:46.935Z,99.90
2022-10-07T19:08:17.726Z,99.90
2022-10-07T19:10:48.915Z,99.90
2022-10-07T19:13:34.922Z,99.90
2022-10-07T19:16:07.304Z,99.90
2022-10-07T19:18:37.858Z,99.90
2022-10-07T19:21:08.688Z,99.90
2022-10-07T19:23:40.114Z,99.90
2022-10-07T19:26:12.734Z,99.90
2022-10-07T19:28:44.292Z,99.90
2022-10-07T19:31:18.697Z,99.90
2022-10-07T19:33:52.163Z,99.90
2022-10-07T19:36:23.932Z,99.90
2022-10-07T19:38:55.260Z,99.90
2022-10-07T19:41:29.477Z,99.90
2022-10-07T19:44:00.497Z,99.90
2022-10-07T19:46:33.069Z,99.90
2022-10-07T19:49:04.891Z,99.90
2022-10-07T19:51:36.283Z,99.90
2022-10-07T19:54:12.900Z,99.90
2022-10-07T19:56:43.922Z,99.90
2022-10-07T19:59:16.748Z,99.90
2022-10-07T20:01:51.712Z,99.90
2022-10-07T20:04:24.122Z,99.90
2022-10-07T20:06:54.920Z,99.90
2022-10-07T20:09:25.348Z,99.90
2022-10-07T20:11:56.215Z,99.90
2022-10-07T20:14:27.625Z,99.90
2022-10-07T20:16:58.306Z,99.90
2022-10-07T20:19:28.717Z,99.90
2022-10-07T20:22:02.917Z,99.90
2022-10-07T20:24:34.450Z,99.90
2022-10-07T20:27:08.387Z,99.90
2022-10-07T20:29:58.321Z,99.90
2022-10-07T20:32:31.322Z,99.90
2022-10-07T20:35:01.852Z,99.90
2022-10-07T20:37:32.113Z,99.90
2022-10-07T20:40:20.476Z,99.90
2022-10-07T20:42:51.033Z,99.90
2022-10-07T20:45:21.527Z,99.90
2022-10-07T20:47:51.947Z,99.90
2022-10-07T20:50:22.319Z,99.90
2022-10-07T20:52:52.610Z,99.90
2022-10-07T20:55:23.371Z,99.90
2022-10-07T20:57:53.768Z,99.90
2022-10-07T21:00:24.169Z,99.90
2022-10-07T21:02:54.578Z,99.90
2022-10-07T21:05:24.943Z,99.90
2022-10-07T21:07:55.294Z,99.90
2022-10-07T21:10:25.676Z,99.90
2022-10-07T21:12:56.063Z,99.90
2022-10-07T21:15:27.249Z,99.90
2022-10-07T21:17:57.631Z,99.90
2022-10-07T21:20:27.948Z,99.90
2022-10-07T21:22:58.366Z,99.90
2022-10-07T21:25:28.724Z,99.90
2022-10-07T21:27:58.979Z,99.90
2022-10-07T21:30:29.761Z,99.90
2022-10-07T21:33:00.655Z,99.90
2022-10-07T21:35:31.100Z,99.90
2022-10-07T21:38:01.521Z,99.90
2022-10-07T21:40:32.838Z,99.90
2022-10-07T21:43:03.135Z,99.90
2022-10-07T21:45:33.480Z,99.90
2022-10-07T21:48:03.908Z,99.90
2022-10-07T21:50:34.249Z,99.90
2022-10-07T21:53:04.813Z,99.90
2022-10-07T21:55:38.376Z,99.90
2022-10-07T21:58:08.715Z,99.90
2022-10-07T22:00:40.313Z,99.90
2022-10-07T22:03:12.933Z,99.90
2022-10-07T22:05:43.879Z,99.90
2022-10-07T22:08:35.788Z,99.90
2022-10-07T22:11:11.288Z,99.90
2022-10-07T22:13:46.515Z,99.90
2022-10-07T22:16:19.516Z,99.90
2022-10-07T22:18:52.431Z,99.90
2022-10-07T22:21:27.718Z,99.90
2022-10-07T22:24:00.160Z,99.90
2022-10-07T22:26:33.606Z,99.90
2022-10-07T22:29:04.143Z,99.90
2022-10-07T22:31:34.757Z,99.90
2022-10-07T22:34:05.889Z,99.90
2022-10-07T22:36:37.300Z,99.90
2022-10-07T22:39:08.828Z,99.90
2022-10-07T22:41:39.131Z,99.90
2022-10-07T22:44:09.572Z,99.90
2022-10-07T22:46:40.304Z,99.90
2022-10-07T22:49:10.660Z,99.90
2022-10-07T22:51:41.134Z,99.90
2022-10-07T22:54:13.411Z,99.90
2022-10-07T22:56:43.733Z,99.90
2022-10-07T22:59:14.027Z,99.90
2022-10-07T23:01:44.994Z,99.90
2022-10-07T23:04:16.354Z,99.90
2022-10-07T23:06:46.742Z,99.90
2022-10-07T23:09:17.064Z,99.90
2022-10-07T23:11:48.037Z,99.90
2022-10-07T23:14:19.070Z,99.90
2022-10-07T23:16:49.559Z,99.90
2022-10-07T23:19:20.368Z,99.90
2022-10-07T23:21:50.735Z,99.90
2022-10-07T23:24:21.033Z,99.90
2022-10-07T23:26:51.426Z,99.90
2022-10-07T23:29:22.541Z,99.90
2022-10-07T23:31:54.361Z,99.90
2022-10-07T23:34:24.900Z,99.90
2022-10-07T23:36:57.701Z,99.90
2022-10-07T23:39:28.138Z,99.90
2022-10-07T23:41:58.584Z,99.90
2022-10-07T23:44:29.150Z,99.90
2022-10-07T23:46:59.528Z,99.90
2022-10-07T23:49:29.962Z,99.90
2022-10-07T23:52:00.488Z,99.90
2022-10-07T23:54:31.194Z,99.90
2022-10-07T23:57:01.469Z,99.90
2022-10-07T23:59:31.828Z,99.90
